Time;durP1;ratioP1;P1;durP2;ratioP2;P2;SDS_P1;SDS_P2;PMS_P1;PMS_P2;Temp;Humidity;BMP_temperature;BMP_pressure;BME280_temperature;BME280_humidity;BME280_pressure;Samples;Min_cycle;Max_cycle;Signal;HPM_P1;HPM_P2
2022/06/13 00:00:12;;;;;;;;;;;;;;;;;;6277993;22;19994;-70
2022/06/13 00:02:39;;;;;;;;;;;;;;;;;;6278052;22;20289;-70
2022/06/13 00:05:08;;;;;;;;;;;;;;;;;;6278353;22;19915;-70
2022/06/13 00:07:35;;;;;;;;;;;;;;;;;;6278028;22;19915;-70
2022/06/13 00:10:03;;;;;;;;;;;;;;;;;;6277924;22;19937;-70
2022/06/13 00:12:30;;;;;;;;;;;;;;;;;;6278145;22;19922;-71
2022/06/13 00:14:57;;;;;;;;;;;;;;;;;;6277857;22;20288;-69
2022/06/13 00:17:25;;;;;;;;;;;;;;;;;;6277767;22;19946;-69
2022/06/13 00:19:52;;;;;;;;;;;;;;;;;;6277849;22;19949;-70
2022/06/13 00:22:20;;;;;;;;;;;;;;;;;;6277769;22;20432;-70
2022/06/13 00:24:47;;;;;;;;;;;;;;;;;;6278202;22;19919;-71
2022/06/13 00:27:15;;;;;;;;;;;;;;;;;;6277768;22;19915;-71
2022/06/13 00:29:44;;;;;;;;;;;;;;;;;;6250730;22;19921;-71
2022/06/13 00:32:11;;;;;;;;;;;;;;;;;;6278028;22;19922;-70
2022/06/13 00:34:39;;;;;;;;;;;;;;;;;;6277700;22;20233;-70
2022/06/13 00:37:06;;;;;;;;;;;;;;;;;;6277657;22;19950;-70
2022/06/13 00:39:33;;;;;;;;;;;;;;;;;;6277706;22;19914;-70
2022/06/13 00:42:01;;;;;;;;;;;;;;;;;;6250397;22;20202;-69
2022/06/13 00:44:28;;;;;;;;;;;;;;;;;;6277593;22;19915;-70
2022/06/13 00:46:56;;;;;;;;;;;;;;;;;;6277520;22;19916;-70
2022/06/13 00:49:23;;;;;;;;;;;;;;;;;;6277555;22;19960;-70
2022/06/13 00:51:51;;;;;;;;;;;;;;;;;;6277639;22;19915;-70
2022/06/13 00:54:18;;;;;;;;;;;;;;;;;;6277329;22;19969;-70
2022/06/13 00:56:47;;;;;;;;;;;;;;;;;;6277257;22;19962;-70
2022/06/13 00:59:14;;;;;;;;;;;;;;;;;;6277353;22;19915;-70
2022/06/13 01:01:41;;;;;;;;;;;;;;;;;;6277397;22;20006;-70
2022/06/13 01:04:09;;;;;;;;;;;;;;;;;;6277449;22;20333;-70
2022/06/13 01:06:36;;;;;;;;;;;;;;;;;;6277338;22;19953;-70
2022/06/13 01:09:03;;;;;;;;;;;;;;;;;;6277399;22;19938;-70
2022/06/13 01:11:31;;;;;;;;;;;;;;;;;;6277218;22;19929;-70
2022/06/13 01:13:58;;;;;;;;;;;;;;;;;;6277301;22;20276;-70
2022/06/13 01:16:25;;;;;;;;;;;;;;;;;;6277375;22;19915;-70
2022/06/13 01:18:53;;;;;;;;;;;;;;;;;;6277359;22;19942;-70
2022/06/13 01:21:20;;;;;;;;;;;;;;;;;;6277307;22;19961;-70
2022/06/13 01:23:48;;;;;;;;;;;;;;;;;;6277337;22;19918;-70
2022/06/13 01:26:15;;;;;;;;;;;;;;;;;;6277320;22;19915;-70
2022/06/13 01:28:43;;;;;;;;;;;;;;;;;;6277501;22;19915;-70
2022/06/13 01:31:10;;;;;;;;;;;;;;;;;;6277205;22;20226;-70
2022/06/13 01:33:37;;;;;;;;;;;;;;;;;;6250030;22;20403;-70
2022/06/13 01:36:05;;;;;;;;;;;;;;;;;;6277115;22;19942;-70
2022/06/13 01:38:32;;;;;;;;;;;;;;;;;;6277103;22;19922;-70
2022/06/13 01:40:59;;;;;;;;;;;;;;;;;;6276919;22;20389;-70
2022/06/13 01:43:27;;;;;;;;;;;;;;;;;;6277455;22;19964;-70
2022/06/13 01:45:54;;;;;;;;;;;;;;;;;;6277049;22;19915;-70
2022/06/13 01:48:21;;;;;;;;;;;;;;;;;;6276979;22;19919;-71
2022/06/13 01:50:49;;;;;;;;;;;;;;;;;;6276929;22;19990;-70
2022/06/13 01:53:16;;;;;;;;;;;;;;;;;;6276934;22;20322;-70
2022/06/13 01:55:44;;;;;;;;;;;;;;;;;;6249488;22;20292;-70
2022/06/13 01:58:12;;;;;;;;;;;;;;;;;;6276975;22;19915;-70
2022/06/13 02:00:39;;;;;;;;;;;;;;;;;;6276718;22;20290;-70
2022/06/13 02:03:07;;;;;;;;;;;;;;;;;;6276883;22;19922;-70
2022/06/13 02:05:35;;;;;;;;;;;;;;;;;;6277168;22;19915;-70
2022/06/13 02:08:03;;;;;;;;;;;;;;;;;;6276894;22;19915;-70
2022/06/13 02:10:46;;;;;;;;;;;;;;;;;;6277006;22;19922;-69
2022/06/13 02:13:13;;;;;;;;;;;;;;;;;;6276654;22;19937;-69
2022/06/13 02:15:41;;;;;;;;;;;;;;;;;;6277113;22;20288;-70
2022/06/13 02:18:08;;;;;;;;;;;;;;;;;;6276733;22;20668;-69
2022/06/13 02:20:35;;;;;;;;;;;;;;;;;;6276744;22;19915;-70
2022/06/13 02:23:03;;;;;;;;;;;;;;;;;;6276993;22;19915;-70
2022/06/13 02:25:30;;;;;;;;;;;;;;;;;;6249693;22;19968;-70
2022/06/13 02:27:57;;;;;;;;;;;;;;;;;;6249663;22;19922;-70
2022/06/13 02:30:25;;;;;;;;;;;;;;;;;;6276709;22;19943;-70
2022/06/13 02:32:52;;;;;;;;;;;;;;;;;;6276582;22;19915;-70
2022/06/13 02:35:19;;;;;;;;;;;;;;;;;;6276391;22;19993;-70
2022/06/13 02:37:47;;;;;;;;;;;;;;;;;;6276662;22;19915;-70
2022/06/13 02:40:17;;;;;;;;;;;;;;;;;;6276554;22;20297;-70
2022/06/13 02:42:44;;;;;;;;;;;;;;;;;;6276531;22;19946;-70
2022/06/13 02:45:12;;;;;;;;;;;;;;;;;;6276534;22;19915;-70
2022/06/13 02:47:39;;;;;;;;;;;;;;;;;;6276468;22;19915;-71
2022/06/13 02:50:06;;;;;;;;;;;;;;;;;;6276540;22;19965;-70
2022/06/13 02:52:33;;;;;;;;;;;;;;;;;;6276305;22;19919;-70
2022/06/13 02:55:01;;;;;;;;;;;;;;;;;;6276477;22;19919;-70
2022/06/13 02:57:32;;;;;;;;;;;;;;;;;;6276312;22;20031;-70
2022/06/13 02:59:59;;;;;;;;;;;;;;;;;;6276325;22;19930;-70
2022/06/13 03:02:26;;;;;;;;;;;;;;;;;;6249389;22;19916;-70
2022/06/13 03:04:54;;;;;;;;;;;;;;;;;;6276508;22;20333;-71
2022/06/13 03:07:21;;;;;;;;;;;;;;;;;;6276800;22;19998;-70
2022/06/13 03:09:49;;;;;;;;;;;;;;;;;;6276528;22;19934;-69
2022/06/13 03:12:19;;;;;;;;;;;;;;;;;;6276283;22;19947;-69
2022/06/13 03:14:46;;;;;;;;;;;;;;;;;;6276463;22;19946;-69
2022/06/13 03:17:14;;;;;;;;;;;;;;;;;;6276305;22;19966;-69
2022/06/13 03:19:41;;;;;;;;;;;;;;;;;;6276268;22;19961;-69
2022/06/13 03:22:08;;;;;;;;;;;;;;;;;;6276594;22;19969;-69
2022/06/13 03:24:36;;;;;;;;;;;;;;;;;;6277162;22;19942;-70
2022/06/13 03:27:03;;;;;;;;;;;;;;;;;;6251693;22;19922;-69
2022/06/13 03:29:34;;;;;;;;;;;;;;;;;;6278274;22;19943;-70
2022/06/13 03:32:04;;;;;;;;;;;;;;;;;;6251061;22;19915;-70
2022/06/13 03:34:35;;;;;;;;;;;;;;;;;;6278103;22;20387;-70
2022/06/13 03:37:12;;;;;;;;;;;;;;;;;;6278095;22;20002;-71
2022/06/13 03:39:40;;;;;;;;;;;;;;;;;;6251099;22;19915;-71
2022/06/13 03:42:08;;;;;;;;;;;;;;;;;;6250428;22;19915;-72
2022/06/13 03:44:37;;;;;;;;;;;;;;;;;;6278096;22;19938;-69
2022/06/13 03:47:07;;;;;;;;;;;;;;;;;;6277777;22;19919;-67
2022/06/13 03:49:35;;;;;;;;;;;;;;;;;;6278153;22;19922;-68
2022/06/13 03:52:02;;;;;;;;;;;;;;;;;;6278002;22;19919;-68
2022/06/13 03:54:29;;;;;;;;;;;;;;;;;;6278078;22;19915;-68
2022/06/13 03:56:57;;;;;;;;;;;;;;;;;;6277969;22;19915;-68
2022/06/13 03:59:24;;;;;;;;;;;;;;;;;;6277920;22;19915;-68
2022/06/13 04:01:51;;;;;;;;;;;;;;;;;;6278216;22;19919;-68
2022/06/13 04:04:19;;;;;;;;;;;;;;;;;;6278019;22;19919;-68
2022/06/13 04:06:47;;;;;;;;;;;;;;;;;;6277888;22;19915;-68
2022/06/13 04:09:14;;;;;;;;;;;;;;;;;;6251076;22;19915;-68
2022/06/13 04:11:41;;;;;;;;;;;;;;;;;;6277932;22;20314;-67
2022/06/13 04:14:09;;;;;;;;;;;;;;;;;;6277934;22;19919;-70
2022/06/13 04:16:36;;;;;;;;;;;;;;;;;;6277869;22;19961;-70
2022/06/13 04:19:03;;;;;;;;;;;;;;;;;;6278086;22;19915;-70
2022/06/13 04:21:31;;;;;;;;;;;;;;;;;;6277832;22;19930;-70
2022/06/13 04:23:58;;;;;;;;;;;;;;;;;;6277906;22;19915;-70
2022/06/13 04:26:25;;;;;;;;;;;;;;;;;;6277842;22;19915;-70
2022/06/13 04:28:53;;;;;;;;;;;;;;;;;;6277731;22;19915;-70
2022/06/13 04:31:20;;;;;;;;;;;;;;;;;;6277771;22;19915;-71
2022/06/13 04:33:47;;;;;;;;;;;;;;;;;;6277594;22;19915;-70
2022/06/13 04:36:15;;;;;;;;;;;;;;;;;;6277046;22;20288;-70
2022/06/13 04:38:42;;;;;;;;;;;;;;;;;;6277319;22;19998;-70
2022/06/13 04:41:09;;;;;;;;;;;;;;;;;;6277598;22;19930;-70
2022/06/13 04:43:37;;;;;;;;;;;;;;;;;;6250709;22;19915;-70
2022/06/13 04:46:04;;;;;;;;;;;;;;;;;;6277675;22;19915;-70
2022/06/13 04:48:31;;;;;;;;;;;;;;;;;;6250570;22;19954;-70
2022/06/13 04:50:59;;;;;;;;;;;;;;;;;;6277495;22;20383;-71
2022/06/13 04:53:26;;;;;;;;;;;;;;;;;;6277655;22;19922;-70
2022/06/13 04:55:53;;;;;;;;;;;;;;;;;;6250557;22;19915;-70
2022/06/13 04:58:21;;;;;;;;;;;;;;;;;;6277401;22;19915;-71
2022/06/13 05:00:48;;;;;;;;;;;;;;;;;;6250452;22;19915;-71
2022/06/13 05:03:15;;;;;;;;;;;;;;;;;;6250299;22;19942;-71
2022/06/13 05:05:43;;;;;;;;;;;;;;;;;;6277817;22;20250;-71
2022/06/13 05:08:11;;;;;;;;;;;;;;;;;;6277465;22;19915;-71
2022/06/13 05:10:38;;;;;;;;;;;;;;;;;;6250631;22;20322;-70
2022/06/13 05:13:05;;;;;;;;;;;;;;;;;;6276968;22;19994;-71
2022/06/13 05:15:33;;;;;;;;;;;;;;;;;;6277365;22;19915;-72
2022/06/13 05:18:00;;;;;;;;;;;;;;;;;;6277243;22;19921;-72
2022/06/13 05:20:27;;;;;;;;;;;;;;;;;;6277430;22;19919;-72
2022/06/13 05:22:55;;;;;;;;;;;;;;;;;;6277275;22;19919;-72
2022/06/13 05:25:23;;;;;;;;;;;;;;;;;;6277296;22;20341;-71
2022/06/13 05:27:50;;;;;;;;;;;;;;;;;;6277325;22;19922;-72
2022/06/13 05:30:18;;;;;;;;;;;;;;;;;;6277222;22;19915;-71
2022/06/13 05:32:45;;;;;;;;;;;;;;;;;;6277240;22;19915;-71
2022/06/13 05:35:13;;;;;;;;;;;;;;;;;;6276806;22;20299;-72
2022/06/13 05:37:40;;;;;;;;;;;;;;;;;;6249767;22;19934;-71
2022/06/13 05:40:08;;;;;;;;;;;;;;;;;;6276844;22;19969;-72
2022/06/13 05:42:35;;;;;;;;;;;;;;;;;;6277025;22;19915;-72
2022/06/13 05:45:02;;;;;;;;;;;;;;;;;;6276804;22;19945;-71
2022/06/13 05:47:30;;;;;;;;;;;;;;;;;;6277139;22;19915;-71
2022/06/13 05:49:57;;;;;;;;;;;;;;;;;;6276808;22;19915;-71
2022/06/13 05:52:24;;;;;;;;;;;;;;;;;;6276649;22;20285;-72
2022/06/13 05:54:51;;;;;;;;;;;;;;;;;;6276633;22;19923;-72
2022/06/13 05:57:19;;;;;;;;;;;;;;;;;;6276757;22;20308;-71
2022/06/13 05:59:49;;;;;;;;;;;;;;;;;;6276491;22;19919;-71
2022/06/13 06:02:16;;;;;;;;;;;;;;;;;;6276746;22;20284;-72
2022/06/13 06:04:44;;;;;;;;;;;;;;;;;;6276653;22;20348;-71
2022/06/13 06:07:11;;;;;;;;;;;;;;;;;;6276854;22;19919;-72
2022/06/13 06:09:38;;;;;;;;;;;;;;;;;;6276891;22;19943;-72
2022/06/13 06:12:06;;;;;;;;;;;;;;;;;;6276784;22;19949;-71
2022/06/13 06:14:33;;;;;;;;;;;;;;;;;;6276415;22;19915;-72
2022/06/13 06:17:01;;;;;;;;;;;;;;;;;;6276389;22;19946;-71
2022/06/13 06:19:29;;;;;;;;;;;;;;;;;;6276433;22;19915;-71
2022/06/13 06:21:57;;;;;;;;;;;;;;;;;;6276199;22;19963;-72
2022/06/13 06:24:24;;;;;;;;;;;;;;;;;;6276280;22;19919;-69
2022/06/13 06:26:51;;;;;;;;;;;;;;;;;;6275988;22;19922;-72
2022/06/13 06:29:19;;;;;;;;;;;;;;;;;;6275785;22;19961;-72
2022/06/13 06:31:46;;;;;;;;;;;;;;;;;;6276647;22;19985;-72
2022/06/13 06:34:13;;;;;;;;;;;;;;;;;;6276467;22;19951;-72
2022/06/13 06:36:41;;;;;;;;;;;;;;;;;;6249116;22;19915;-73
2022/06/13 06:39:08;;;;;;;;;;;;;;;;;;6276423;22;20322;-72
2022/06/13 06:41:35;;;;;;;;;;;;;;;;;;6276349;22;19915;-69
2022/06/13 06:44:03;;;;;;;;;;;;;;;;;;6276584;22;19915;-72
2022/06/13 06:46:30;;;;;;;;;;;;;;;;;;6248874;22;19915;-73
2022/06/13 06:48:57;;;;;;;;;;;;;;;;;;6275978;22;20270;-73
2022/06/13 06:51:29;;;;;;;;;;;;;;;;;;6276375;22;19968;-73
2022/06/13 07:02:15;;;;;;;;;;;;;;;;;;6276412;22;20326;-72
2022/06/13 07:04:42;;;;;;;;;;;;;;;;;;6276359;22;19915;-71
2022/06/13 07:07:09;;;;;;;;;;;;;;;;;;6275702;22;20322;-72
2022/06/13 07:09:37;;;;;;;;;;;;;;;;;;6275910;22;19918;-72
2022/06/13 07:12:04;;;;;;;;;;;;;;;;;;6276070;22;19922;-71
2022/06/13 07:14:31;;;;;;;;;;;;;;;;;;6276524;22;19950;-72
2022/06/13 07:16:59;;;;;;;;;;;;;;;;;;6249180;22;19922;-71
2022/06/13 07:19:26;;;;;;;;;;;;;;;;;;6275821;22;19930;-71
2022/06/13 07:21:53;;;;;;;;;;;;;;;;;;6276294;22;19977;-72
2022/06/13 07:24:21;;;;;;;;;;;;;;;;;;6276374;22;19943;-72
2022/06/13 07:26:48;;;;;;;;;;;;;;;;;;6276267;22;19922;-72
2022/06/13 07:29:18;;;;;;;;;;;;;;;;;;6276517;22;19950;-70
2022/06/13 07:31:46;;;;;;;;;;;;;;;;;;6276069;22;19949;-72
2022/06/13 07:34:14;;;;;;;;;;;;;;;;;;6276242;22;19919;-72
2022/06/13 07:36:46;;;;;;;;;;;;;;;;;;6275664;22;19923;-72
2022/06/13 07:39:13;;;;;;;;;;;;;;;;;;6275948;22;20404;-73
2022/06/13 07:41:40;;;;;;;;;;;;;;;;;;6276138;22;20337;-73
2022/06/13 07:44:08;;;;;;;;;;;;;;;;;;6276046;22;19993;-73
2022/06/13 07:46:35;;;;;;;;;;;;;;;;;;6276470;22;19915;-74
2022/06/13 07:49:03;;;;;;;;;;;;;;;;;;6276281;22;19921;-73
2022/06/13 07:51:30;;;;;;;;;;;;;;;;;;6276236;22;19919;-73
2022/06/13 07:54:02;;;;;;;;;;;;;;;;;;6276401;22;20001;-73
2022/06/13 07:56:29;;;;;;;;;;;;;;;;;;6276165;22;20007;-72
2022/06/13 07:58:56;;;;;;;;;;;;;;;;;;6275976;22;20318;-72
2022/06/13 08:01:24;;;;;;;;;;;;;;;;;;6276038;22;19968;-73
2022/06/13 08:03:54;;;;;;;;;;;;;;;;;;6276544;22;19915;-72
2022/06/13 08:06:22;;;;;;;;;;;;;;;;;;6276237;22;20380;-72
2022/06/13 08:08:49;;;;;;;;;;;;;;;;;;6276423;22;20284;-73
2022/06/13 08:11:17;;;;;;;;;;;;;;;;;;6276653;22;19949;-73
2022/06/13 08:13:44;;;;;;;;;;;;;;;;;;6278012;22;19916;-73
2022/06/13 08:16:11;;;;;;;;;;;;;;;;;;6250802;22;20336;-72
2022/06/13 08:18:39;;;;;;;;;;;;;;;;;;6277879;22;19915;-72
2022/06/13 08:21:07;;;;;;;;;;;;;;;;;;6277931;22;19961;-73
2022/06/13 08:23:34;;;;;;;;;;;;;;;;;;6277723;22;19922;-72
2022/06/13 08:26:02;;;;;;;;;;;;;;;;;;6277880;22;19919;-72
2022/06/13 08:28:29;;;;;;;;;;;;;;;;;;6277862;22;20010;-73
2022/06/13 08:30:56;;;;;;;;;;;;;;;;;;6277868;22;19945;-70
2022/06/13 08:33:24;;;;;;;;;;;;;;;;;;6277926;22;20279;-71
2022/06/13 08:35:51;;;;;;;;;;;;;;;;;;6277815;22;19922;-71
2022/06/13 08:38:18;;;;;;;;;;;;;;;;;;6277689;22;20305;-73
2022/06/13 08:40:46;;;;;;;;;;;;;;;;;;6277771;22;19989;-73
2022/06/13 08:43:14;;;;;;;;;;;;;;;;;;6277740;22;19915;-73
2022/06/13 08:45:41;;;;;;;;;;;;;;;;;;6278066;22;19915;-72
2022/06/13 08:48:08;;;;;;;;;;;;;;;;;;6277907;22;19938;-73
2022/06/13 08:50:37;;;;;;;;;;;;;;;;;;6277618;22;19922;-73
2022/06/13 08:53:04;;;;;;;;;;;;;;;;;;6277829;22;19915;-73
2022/06/13 08:55:31;;;;;;;;;;;;;;;;;;6277919;22;20257;-73
2022/06/13 08:57:59;;;;;;;;;;;;;;;;;;6277616;22;19919;-73
2022/06/13 09:00:26;;;;;;;;;;;;;;;;;;6277370;22;19916;-73
2022/06/13 09:02:53;;;;;;;;;;;;;;;;;;6277595;22;19998;-72
2022/06/13 09:05:21;;;;;;;;;;;;;;;;;;6277490;22;19922;-72
2022/06/13 09:07:49;;;;;;;;;;;;;;;;;;6277520;22;19922;-72
2022/06/13 09:10:16;;;;;;;;;;;;;;;;;;6277391;22;19986;-72
2022/06/13 09:12:43;;;;;;;;;;;;;;;;;;6277395;22;19919;-72
2022/06/13 09:15:10;;;;;;;;;;;;;;;;;;6250184;22;19942;-72
2022/06/13 09:17:38;;;;;;;;;;;;;;;;;;6277368;22;19915;-71
2022/06/13 09:20:06;;;;;;;;;;;;;;;;;;6277179;22;19949;-71
2022/06/13 09:22:33;;;;;;;;;;;;;;;;;;6276990;22;19919;-71
2022/06/13 09:25:01;;;;;;;;;;;;;;;;;;6277114;22;20033;-72
2022/06/13 09:27:28;;;;;;;;;;;;;;;;;;6277221;22;19915;-72
2022/06/13 09:29:55;;;;;;;;;;;;;;;;;;6277258;22;19945;-72
2022/06/13 09:32:23;;;;;;;;;;;;;;;;;;6277224;22;19948;-72
2022/06/13 09:34:50;;;;;;;;;;;;;;;;;;6277015;22;19919;-72
2022/06/13 09:37:18;;;;;;;;;;;;;;;;;;6277144;22;19915;-72
2022/06/13 09:39:46;;;;;;;;;;;;;;;;;;6277004;22;20358;-72
2022/06/13 09:42:14;;;;;;;;;;;;;;;;;;6277116;22;19915;-71
2022/06/13 09:44:41;;;;;;;;;;;;;;;;;;6277107;22;19915;-71
2022/06/13 09:47:08;;;;;;;;;;;;;;;;;;6277478;22;19915;-72
2022/06/13 09:49:38;;;;;;;;;;;;;;;;;;6277010;22;20018;-72
2022/06/13 09:52:06;;;;;;;;;;;;;;;;;;6277085;22;20283;-71
2022/06/13 09:54:33;;;;;;;;;;;;;;;;;;6276961;22;19922;-72
2022/06/13 09:57:01;;;;;;;;;;;;;;;;;;6277001;22;19919;-71
2022/06/13 09:59:28;;;;;;;;;;;;;;;;;;6276295;22;19923;-72
2022/06/13 10:01:55;;;;;;;;;;;;;;;;;;6276784;22;20253;-72
2022/06/13 10:04:23;;;;;;;;;;;;;;;;;;6277204;22;19998;-72
2022/06/13 10:06:50;;;;;;;;;;;;;;;;;;6276842;22;20109;-72
2022/06/13 10:09:18;;;;;;;;;;;;;;;;;;6276877;22;19961;-72
2022/06/13 10:11:45;;;;;;;;;;;;;;;;;;6276797;22;19915;-72
2022/06/13 10:14:12;;;;;;;;;;;;;;;;;;6277180;22;19922;-72
2022/06/13 10:16:40;;;;;;;;;;;;;;;;;;6276769;22;19922;-72
2022/06/13 10:19:07;;;;;;;;;;;;;;;;;;6277048;22;19915;-72
2022/06/13 10:21:36;;;;;;;;;;;;;;;;;;6276727;22;19915;-72
2022/06/13 10:24:03;;;;;;;;;;;;;;;;;;6249970;22;19915;-71
2022/06/13 10:26:30;;;;;;;;;;;;;;;;;;6276949;22;20272;-72
2022/06/13 10:28:58;;;;;;;;;;;;;;;;;;6276851;22;19923;-71
2022/06/13 10:31:26;;;;;;;;;;;;;;;;;;6276786;22;19915;-71
2022/06/13 10:33:53;;;;;;;;;;;;;;;;;;6249553;22;19941;-72
2022/06/13 10:36:21;;;;;;;;;;;;;;;;;;6276568;22;19926;-72
2022/06/13 10:38:49;;;;;;;;;;;;;;;;;;6276773;22;19968;-71
2022/06/13 10:41:16;;;;;;;;;;;;;;;;;;6276831;22;19919;-71
2022/06/13 10:43:44;;;;;;;;;;;;;;;;;;6276669;22;20240;-71
2022/06/13 10:46:11;;;;;;;;;;;;;;;;;;6276616;22;19919;-72
2022/06/13 10:48:39;;;;;;;;;;;;;;;;;;6276644;22;20383;-71
2022/06/13 10:51:06;;;;;;;;;;;;;;;;;;6276645;22;19915;-71
2022/06/13 10:53:36;;;;;;;;;;;;;;;;;;6249425;22;20353;-72
2022/06/13 10:56:04;;;;;;;;;;;;;;;;;;6276882;22;19915;-72
2022/06/13 10:58:31;;;;;;;;;;;;;;;;;;6276446;22;20002;-72
2022/06/13 11:01:01;;;;;;;;;;;;;;;;;;6276240;22;19938;-72
2022/06/13 11:03:29;;;;;;;;;;;;;;;;;;6276676;22;19915;-71
2022/06/13 11:05:56;;;;;;;;;;;;;;;;;;6276385;22;19919;-71
2022/06/13 11:08:23;;;;;;;;;;;;;;;;;;6276666;22;19916;-71
2022/06/13 11:10:59;;;;;;;;;;;;;;;;;;6276311;22;19922;-71
2022/06/13 11:13:27;;;;;;;;;;;;;;;;;;6276474;22;20237;-72
2022/06/13 11:24:12;;;;;;;;;;;;;;;;;;6276563;22;19915;-72
2022/06/13 11:29:26;;;;;;;;;;;;;;;;;;6276151;22;19915;-71
2022/06/13 11:31:53;;;;;;;;;;;;;;;;;;6275993;22;19915;-70
2022/06/13 11:34:21;;;;;;;;;;;;;;;;;;6276137;22;19922;-70
2022/06/13 11:36:49;;;;;;;;;;;;;;;;;;6276452;22;20006;-71
2022/06/13 11:39:20;;;;;;;;;;;;;;;;;;6275957;22;19922;-71
2022/06/13 11:41:47;;;;;;;;;;;;;;;;;;6276032;22;19922;-70
2022/06/13 11:44:15;;;;;;;;;;;;;;;;;;6276078;22;19950;-71
2022/06/13 11:46:42;;;;;;;;;;;;;;;;;;6277718;22;19922;-72
2022/06/13 11:49:09;;;;;;;;;;;;;;;;;;6278062;22;20326;-72
2022/06/13 11:51:37;;;;;;;;;;;;;;;;;;6278087;22;19915;-71
2022/06/13 11:54:04;;;;;;;;;;;;;;;;;;6278132;22;19922;-71
2022/06/13 11:56:32;;;;;;;;;;;;;;;;;;6278087;22;19915;-72
2022/06/13 11:58:59;;;;;;;;;;;;;;;;;;6277961;22;19922;-72
2022/06/13 12:01:26;;;;;;;;;;;;;;;;;;6277831;22;19991;-71
2022/06/13 12:03:55;;;;;;;;;;;;;;;;;;6277744;22;19915;-71
2022/06/13 12:06:22;;;;;;;;;;;;;;;;;;6277860;22;20382;-71
2022/06/13 12:08:50;;;;;;;;;;;;;;;;;;6278178;22;19916;-70
2022/06/13 12:11:17;;;;;;;;;;;;;;;;;;6277906;22;19915;-71
2022/06/13 12:13:45;;;;;;;;;;;;;;;;;;6277761;22;19926;-71
2022/06/13 12:16:12;;;;;;;;;;;;;;;;;;6277774;22;19997;-71
2022/06/13 12:18:40;;;;;;;;;;;;;;;;;;6277878;22;19915;-71
2022/06/13 12:21:07;;;;;;;;;;;;;;;;;;6250632;22;19946;-71
2022/06/13 12:23:34;;;;;;;;;;;;;;;;;;6277649;22;19961;-71
2022/06/13 12:26:02;;;;;;;;;;;;;;;;;;6277707;22;20214;-71
2022/06/13 12:28:29;;;;;;;;;;;;;;;;;;6278057;22;19946;-71
2022/06/13 12:30:56;;;;;;;;;;;;;;;;;;6277898;22;19915;-71
2022/06/13 12:33:24;;;;;;;;;;;;;;;;;;6277838;22;20317;-72
2022/06/13 12:35:51;;;;;;;;;;;;;;;;;;6278000;22;19915;-71
2022/06/13 12:38:18;;;;;;;;;;;;;;;;;;6277682;22;19950;-71
2022/06/13 12:40:46;;;;;;;;;;;;;;;;;;6277679;22;19922;-71
2022/06/13 12:43:13;;;;;;;;;;;;;;;;;;6278097;22;19915;-71
2022/06/13 12:45:40;;;;;;;;;;;;;;;;;;6250613;22;19916;-72
2022/06/13 12:48:08;;;;;;;;;;;;;;;;;;6277510;22;20318;-71
2022/06/13 12:50:35;;;;;;;;;;;;;;;;;;6277462;22;20249;-71
2022/06/13 12:53:03;;;;;;;;;;;;;;;;;;6277514;22;19919;-71
2022/06/13 12:55:30;;;;;;;;;;;;;;;;;;6277697;22;20234;-71
2022/06/13 12:57:58;;;;;;;;;;;;;;;;;;6277249;22;19943;-71
2022/06/13 13:00:25;;;;;;;;;;;;;;;;;;6277353;22;19915;-71
2022/06/13 13:02:52;;;;;;;;;;;;;;;;;;6277476;22;19965;-71
2022/06/13 13:05:20;;;;;;;;;;;;;;;;;;6277390;22;20273;-71
2022/06/13 13:07:47;;;;;;;;;;;;;;;;;;6277284;22;19924;-71
2022/06/13 13:10:14;;;;;;;;;;;;;;;;;;6277336;22;19915;-72
2022/06/13 13:12:42;;;;;;;;;;;;;;;;;;6277477;22;19915;-71
2022/06/13 13:15:11;;;;;;;;;;;;;;;;;;6250563;22;19915;-72
2022/06/13 13:17:39;;;;;;;;;;;;;;;;;;6277735;22;19994;-72
2022/06/13 13:20:06;;;;;;;;;;;;;;;;;;6276399;22;19922;-72
2022/06/13 13:22:33;;;;;;;;;;;;;;;;;;6275813;22;19930;-72
2022/06/13 13:25:21;;;;;;;;;;;;;;;;;;6276564;22;19962;-72
2022/06/13 13:27:48;;;;;;;;;;;;;;;;;;6276887;22;20388;-72
2022/06/13 13:30:15;;;;;;;;;;;;;;;;;;6276503;22;19998;-72
2022/06/13 13:32:43;;;;;;;;;;;;;;;;;;6276440;22;19923;-71
2022/06/13 13:35:10;;;;;;;;;;;;;;;;;;6276506;22;19961;-72
2022/06/13 13:37:38;;;;;;;;;;;;;;;;;;6276561;22;19915;-69
2022/06/13 13:40:05;;;;;;;;;;;;;;;;;;6275799;22;20306;-69
2022/06/13 13:42:32;;;;;;;;;;;;;;;;;;6249210;22;19915;-69
2022/06/13 13:45:00;;;;;;;;;;;;;;;;;;6276013;22;19915;-66
2022/06/13 13:47:27;;;;;;;;;;;;;;;;;;6276099;22;20296;-66
2022/06/13 13:49:55;;;;;;;;;;;;;;;;;;6249773;22;19915;-66
2022/06/13 13:52:22;;;;;;;;;;;;;;;;;;6276281;22;19922;-69
2022/06/13 13:54:50;;;;;;;;;;;;;;;;;;6275802;22;19915;-66
2022/06/13 13:57:17;;;;;;;;;;;;;;;;;;6275655;22;19915;-66
2022/06/13 13:59:45;;;;;;;;;;;;;;;;;;6249820;22;19970;-66
2022/06/13 14:02:17;;;;;;;;;;;;;;;;;;6276877;22;19921;-81
2022/06/13 14:04:44;;;;;;;;;;;;;;;;;;6276810;22;19922;-82
2022/06/13 14:07:11;;;;;;;;;;;;;;;;;;6276799;22;19942;-81
2022/06/13 14:09:39;;;;;;;;;;;;;;;;;;6276191;22;19922;-83
2022/06/13 14:12:08;;;;;;;;;;;;;;;;;;6277128;22;20246;-78
2022/06/13 14:14:36;;;;;;;;;;;;;;;;;;6276541;22;19915;-79
2022/06/13 14:17:07;;;;;;;;;;;;;;;;;;6276945;22;20003;-65
2022/06/13 14:19:34;;;;;;;;;;;;;;;;;;6276338;22;19915;-65
2022/06/13 14:22:02;;;;;;;;;;;;;;;;;;6276169;22;19926;-65
2022/06/13 14:24:30;;;;;;;;;;;;;;;;;;6276354;22;19915;-65
2022/06/13 14:26:58;;;;;;;;;;;;;;;;;;6276567;22;19942;-65
2022/06/13 14:29:26;;;;;;;;;;;;;;;;;;6276657;22;19919;-65
2022/06/13 14:31:54;;;;;;;;;;;;;;;;;;6276482;22;19921;-65
2022/06/13 14:37:08;;;;;;;;;;;;;;;;;;6276436;22;19986;-64
2022/06/13 14:39:35;;;;;;;;;;;;;;;;;;6247779;22;20288;-65
2022/06/13 14:42:02;;;;;;;;;;;;;;;;;;6276020;22;19993;-65
2022/06/13 14:44:30;;;;;;;;;;;;;;;;;;6276496;22;19915;-65
2022/06/13 14:47:02;;;;;;;;;;;;;;;;;;6276618;22;19923;-65
2022/06/13 14:49:31;;;;;;;;;;;;;;;;;;6249258;22;20407;-65
2022/06/13 14:51:58;;;;;;;;;;;;;;;;;;6276477;22;19915;-65
2022/06/13 14:54:26;;;;;;;;;;;;;;;;;;6276471;22;20288;-65
2022/06/13 14:56:53;;;;;;;;;;;;;;;;;;6276540;22;19915;-65
2022/06/13 14:59:20;;;;;;;;;;;;;;;;;;6276320;22;19942;-65
2022/06/13 15:01:48;;;;;;;;;;;;;;;;;;6276337;22;19922;-65
2022/06/13 15:04:15;;;;;;;;;;;;;;;;;;6276744;22;19915;-64
2022/06/13 15:06:43;;;;;;;;;;;;;;;;;;6276401;22;20322;-66
2022/06/13 15:09:11;;;;;;;;;;;;;;;;;;6277141;22;19915;-65
2022/06/13 15:11:38;;;;;;;;;;;;;;;;;;6276362;22;19915;-65
2022/06/13 15:14:05;;;;;;;;;;;;;;;;;;6276229;22;20281;-64
2022/06/13 15:16:33;;;;;;;;;;;;;;;;;;6276273;22;20294;-65
2022/06/13 15:19:03;;;;;;;;;;;;;;;;;;6276332;22;19915;-65
2022/06/13 15:21:30;;;;;;;;;;;;;;;;;;6277854;22;19919;-64
2022/06/13 15:24:05;;;;;;;;;;;;;;;;;;6278522;22;19915;-64
2022/06/13 15:26:33;;;;;;;;;;;;;;;;;;6278938;22;20138;-64
2022/06/13 15:29:00;;;;;;;;;;;;;;;;;;6278284;22;20285;-64
2022/06/13 15:31:28;;;;;;;;;;;;;;;;;;6278472;22;19915;-64
2022/06/13 15:33:55;;;;;;;;;;;;;;;;;;6278744;22;19915;-64
2022/06/13 15:36:24;;;;;;;;;;;;;;;;;;6278315;22;19984;-64
2022/06/13 15:38:52;;;;;;;;;;;;;;;;;;6278209;22;19915;-65
2022/06/13 15:41:19;;;;;;;;;;;;;;;;;;6278015;22;19922;-65
2022/06/13 15:43:47;;;;;;;;;;;;;;;;;;6278292;22;19915;-65
2022/06/13 15:46:14;;;;;;;;;;;;;;;;;;6278564;22;19922;-65
2022/06/13 15:48:42;;;;;;;;;;;;;;;;;;6251331;22;19915;-65
2022/06/13 15:51:09;;;;;;;;;;;;;;;;;;6278264;22;19923;-65
2022/06/13 15:53:37;;;;;;;;;;;;;;;;;;6278243;22;19950;-66
2022/06/13 15:56:04;;;;;;;;;;;;;;;;;;6250977;22;19915;-66
2022/06/13 15:58:32;;;;;;;;;;;;;;;;;;6278374;22;19969;-66
2022/06/13 16:00:59;;;;;;;;;;;;;;;;;;6277898;22;20230;-66
2022/06/13 16:03:26;;;;;;;;;;;;;;;;;;6278456;22;19943;-66
2022/06/13 16:05:54;;;;;;;;;;;;;;;;;;6277942;22;19919;-66
2022/06/13 16:08:21;;;;;;;;;;;;;;;;;;6277972;22;19915;-66
2022/06/13 16:10:49;;;;;;;;;;;;;;;;;;6250901;22;19962;-66
2022/06/13 16:13:16;;;;;;;;;;;;;;;;;;6278006;22;19921;-66
2022/06/13 16:15:43;;;;;;;;;;;;;;;;;;6278391;22;19923;-66
2022/06/13 16:18:11;;;;;;;;;;;;;;;;;;6277545;22;19916;-66
2022/06/13 16:20:39;;;;;;;;;;;;;;;;;;6249044;22;19946;-76
2022/06/13 16:23:07;;;;;;;;;;;;;;;;;;6249490;22;19914;-77
2022/06/13 16:25:34;;;;;;;;;;;;;;;;;;6277279;22;19919;-75
2022/06/13 16:28:02;;;;;;;;;;;;;;;;;;6277249;22;20389;-71
2022/06/13 16:30:29;;;;;;;;;;;;;;;;;;6277521;22;19919;-77
2022/06/13 16:32:56;;;;;;;;;;;;;;;;;;6276872;22;19950;-73
2022/06/13 16:35:24;;;;;;;;;;;;;;;;;;6277660;22;19926;-76
2022/06/13 16:37:51;;;;;;;;;;;;;;;;;;6277499;22;19915;-75
2022/06/13 16:40:18;;;;;;;;;;;;;;;;;;6277359;22;20227;-73
2022/06/13 16:42:46;;;;;;;;;;;;;;;;;;6278154;22;19980;-74
2022/06/13 16:45:13;;;;;;;;;;;;;;;;;;6281458;22;19946;-75
2022/06/13 16:47:41;;;;;;;;;;;;;;;;;;6277679;22;20322;-73
2022/06/13 16:50:08;;;;;;;;;;;;;;;;;;6275933;22;20287;-73
2022/06/13 16:52:36;;;;;;;;;;;;;;;;;;6275199;22;20002;-72
2022/06/13 16:55:05;;;;;;;;;;;;;;;;;;6249709;22;19989;-74
2022/06/13 16:57:32;;;;;;;;;;;;;;;;;;6276336;22;19938;-73
2022/06/13 17:00:00;;;;;;;;;;;;;;;;;;6276622;22;19915;-73
2022/06/13 17:02:27;;;;;;;;;;;;;;;;;;6276654;22;19946;-75
2022/06/13 17:04:54;;;;;;;;;;;;;;;;;;6276061;22;19915;-76
2022/06/13 17:07:22;;;;;;;;;;;;;;;;;;6276335;22;19969;-73
2022/06/13 17:09:49;;;;;;;;;;;;;;;;;;6275663;22;19922;-75